createdAt,value
2018-06-30T00:00:20.442Z,18.30
2018-06-30T00:02:49.378Z,18.20
2018-06-30T00:05:18.317Z,18.30
2018-06-30T00:07:47.298Z,18.30
2018-06-30T00:10:24.082Z,18.10
2018-06-30T00:12:53.129Z,18.10
2018-06-30T00:15:22.055Z,18.10
2018-06-30T00:17:50.974Z,18.20
2018-06-30T00:20:19.942Z,18.20
2018-06-30T00:22:48.849Z,18.10
2018-06-30T00:25:17.931Z,18.00
2018-06-30T00:27:46.794Z,18.00
2018-06-30T00:30:15.749Z,17.80
2018-06-30T00:32:44.726Z,17.90
2018-06-30T00:35:13.619Z,17.90
2018-06-30T00:37:42.554Z,17.90
2018-06-30T00:40:11.430Z,17.80
2018-06-30T00:42:40.351Z,17.80
2018-06-30T00:45:09.543Z,17.70
2018-06-30T00:47:38.429Z,17.60
2018-06-30T00:52:35.830Z,17.60
2018-06-30T00:55:04.757Z,17.60
2018-06-30T00:57:33.670Z,17.50
2018-06-30T01:02:31.041Z,17.50
2018-06-30T01:04:59.958Z,17.30
2018-06-30T01:09:57.354Z,17.20
2018-06-30T01:12:26.255Z,17.10
2018-06-30T01:14:55.254Z,17.10
2018-06-30T01:17:24.157Z,17.00
2018-06-30T01:19:53.060Z,17.00
2018-06-30T01:22:21.968Z,16.90
2018-06-30T01:24:50.996Z,16.90
2018-06-30T01:27:19.923Z,16.80
2018-06-30T01:29:48.822Z,16.80
2018-06-30T01:32:17.705Z,16.80
2018-06-30T01:34:46.662Z,16.80
2018-06-30T01:37:15.538Z,16.90
2018-06-30T01:39:44.469Z,17.00
2018-06-30T01:42:13.369Z,16.80
2018-06-30T01:44:42.321Z,16.80
2018-06-30T01:47:11.215Z,16.80
2018-06-30T01:52:08.666Z,16.80
2018-06-30T01:54:37.542Z,16.80
2018-06-30T01:57:06.565Z,16.70
2018-06-30T01:59:35.466Z,16.70
2018-06-30T02:02:04.570Z,16.60
2018-06-30T02:04:33.471Z,16.60
2018-06-30T02:07:02.379Z,16.60
2018-06-30T02:09:31.249Z,16.50
2018-06-30T02:12:00.152Z,16.50
2018-06-30T02:14:29.051Z,16.60
2018-06-30T02:16:57.945Z,16.50
2018-06-30T02:19:26.838Z,16.50
2018-06-30T02:21:55.834Z,16.50
2018-06-30T02:24:24.749Z,16.40
2018-06-30T02:26:53.771Z,16.40
2018-06-30T02:29:22.985Z,16.40
2018-06-30T02:31:51.942Z,16.40
2018-06-30T02:34:20.845Z,16.40
2018-06-30T02:36:49.831Z,16.40
2018-06-30T02:39:18.763Z,16.30
2018-06-30T02:41:47.681Z,16.30
2018-06-30T02:44:16.640Z,16.20
2018-06-30T02:46:45.530Z,16.20
2018-06-30T02:51:42.944Z,16.30
2018-06-30T02:54:11.806Z,16.30
2018-06-30T02:56:40.694Z,16.30
2018-06-30T02:59:09.557Z,16.10
2018-06-30T03:01:38.443Z,16.10
2018-06-30T03:04:07.325Z,16.10
2018-06-30T03:06:36.247Z,15.90
2018-06-30T03:09:07.727Z,15.90
2018-06-30T03:11:36.626Z,16.00
2018-06-30T03:14:05.662Z,16.00
2018-06-30T03:16:34.570Z,15.90
2018-06-30T03:19:03.494Z,15.90
2018-06-30T03:21:32.393Z,15.80
2018-06-30T03:24:01.261Z,15.90
2018-06-30T03:26:30.141Z,15.90
2018-06-30T03:28:58.993Z,15.80
2018-06-30T03:31:27.975Z,15.80
2018-06-30T03:33:56.790Z,15.90
2018-06-30T03:36:25.698Z,15.90
2018-06-30T03:38:54.639Z,16.00
2018-06-30T03:41:23.551Z,16.00
2018-06-30T03:43:53.218Z,15.80
2018-06-30T03:46:22.251Z,15.80
2018-06-30T03:48:51.074Z,15.80
2018-06-30T03:51:19.961Z,15.90
2018-06-30T03:53:49.014Z,15.90
2018-06-30T03:56:17.942Z,16.00
2018-06-30T03:58:46.818Z,16.00
2018-06-30T04:01:16.550Z,16.00
2018-06-30T04:03:45.413Z,16.10
2018-06-30T04:06:14.327Z,16.10
2018-06-30T04:08:43.246Z,16.20
2018-06-30T04:11:12.149Z,16.20
2018-06-30T04:13:41.101Z,16.30
2018-06-30T04:16:10.016Z,16.40
2018-06-30T04:18:38.878Z,16.50
2018-06-30T04:21:07.783Z,16.50
2018-06-30T04:23:36.683Z,16.60
2018-06-30T04:26:05.616Z,16.70
2018-06-30T04:28:34.507Z,16.80
2018-06-30T04:31:03.416Z,16.90
2018-06-30T04:33:32.286Z,16.80
2018-06-30T04:36:01.202Z,16.90
2018-06-30T04:38:30.094Z,17.00
2018-06-30T04:40:58.977Z,17.10
2018-06-30T04:45:56.494Z,17.20
2018-06-30T04:48:25.514Z,17.40
2018-06-30T04:50:54.417Z,17.40
2018-06-30T04:53:23.280Z,17.50
2018-06-30T04:55:52.158Z,17.60
2018-06-30T04:58:21.085Z,17.70
2018-06-30T05:00:49.991Z,17.80
2018-06-30T05:03:18.912Z,17.90
2018-06-30T05:08:16.522Z,18.20
2018-06-30T05:10:45.446Z,18.30
2018-06-30T05:13:14.339Z,18.10
2018-06-30T05:15:43.240Z,18.30
2018-06-30T05:18:12.136Z,18.20
2018-06-30T05:23:09.526Z,18.30
2018-06-30T05:25:38.462Z,18.40
2018-06-30T05:28:07.353Z,18.60
2018-06-30T05:30:36.254Z,18.60
2018-06-30T05:33:05.402Z,18.80
2018-06-30T05:35:34.286Z,18.70
2018-06-30T05:38:03.271Z,18.90
2018-06-30T05:40:32.350Z,19.00
2018-06-30T05:43:01.323Z,19.00
2018-06-30T05:45:30.210Z,19.10
2018-06-30T05:47:59.097Z,19.10
2018-06-30T05:50:28.071Z,19.30
2018-06-30T05:52:57.082Z,19.30
2018-06-30T05:55:25.958Z,19.40
2018-06-30T05:57:54.862Z,19.40
2018-06-30T06:00:23.767Z,19.50
2018-06-30T06:02:52.750Z,19.70
2018-06-30T06:05:21.645Z,19.70
2018-06-30T06:07:50.682Z,19.60
2018-06-30T06:10:19.740Z,19.60
2018-06-30T06:12:48.731Z,19.70
2018-06-30T06:15:17.720Z,19.90
2018-06-30T06:17:46.660Z,19.90
2018-06-30T06:20:15.621Z,19.80
2018-06-30T06:22:44.557Z,19.90
2018-06-30T06:27:42.130Z,20.10
2018-06-30T06:30:11.039Z,20.20
2018-06-30T06:32:39.989Z,20.10
2018-06-30T06:35:08.810Z,20.20
2018-06-30T06:37:37.689Z,20.20
2018-06-30T06:40:06.578Z,20.20
2018-06-30T06:42:35.522Z,20.20
2018-06-30T06:45:04.458Z,20.20
2018-06-30T06:47:33.371Z,20.30
2018-06-30T06:50:02.301Z,20.40
2018-06-30T06:52:31.261Z,20.50
2018-06-30T06:55:00.134Z,20.50
2018-06-30T06:57:29.133Z,20.40
2018-06-30T06:59:58.032Z,20.50
2018-06-30T07:02:26.979Z,20.70
2018-06-30T07:04:55.902Z,20.80
2018-06-30T07:07:24.820Z,20.90
2018-06-30T07:09:53.708Z,21.00
2018-06-30T07:12:22.645Z,21.00
2018-06-30T07:14:51.573Z,21.10
2018-06-30T07:17:20.531Z,21.10
2018-06-30T07:19:49.422Z,21.10
2018-06-30T07:22:18.381Z,21.00
2018-06-30T07:24:47.358Z,21.10
2018-06-30T07:27:16.266Z,21.00
2018-06-30T07:29:45.219Z,21.00
2018-06-30T07:32:14.147Z,21.10
2018-06-30T07:34:43.031Z,21.30
2018-06-30T07:37:11.993Z,21.30
2018-06-30T07:39:40.875Z,21.40
2018-06-30T07:42:09.802Z,21.40
2018-06-30T07:44:42.690Z,21.50
2018-06-30T07:47:11.587Z,21.60
2018-06-30T07:49:40.455Z,21.70
2018-06-30T07:52:09.381Z,21.90
2018-06-30T07:54:38.286Z,21.90
2018-06-30T07:57:07.190Z,21.90
2018-06-30T07:59:36.182Z,22.00
2018-06-30T08:02:05.301Z,21.80
2018-06-30T08:04:34.208Z,21.60
2018-06-30T08:07:03.264Z,21.80
2018-06-30T08:09:32.394Z,22.00
2018-06-30T08:12:01.435Z,22.00
2018-06-30T08:14:30.346Z,22.00
2018-06-30T08:16:59.318Z,22.20
2018-06-30T08:19:28.212Z,22.20
2018-06-30T08:21:57.112Z,22.20
2018-06-30T08:24:26.005Z,22.20
2018-06-30T08:26:55.296Z,22.40
2018-06-30T08:29:24.478Z,22.40
2018-06-30T08:31:53.433Z,22.60
2018-06-30T08:34:22.355Z,22.50
2018-06-30T08:36:51.280Z,22.60
2018-06-30T08:39:20.178Z,22.60
2018-06-30T08:41:49.138Z,22.60
2018-06-30T08:44:18.051Z,22.50
2018-06-30T08:46:47.103Z,22.70
2018-06-30T08:49:16.023Z,22.90
2018-06-30T08:51:44.882Z,23.10
2018-06-30T08:54:13.778Z,23.30
2018-06-30T08:56:42.668Z,23.00
2018-06-30T08:59:11.563Z,23.10
2018-06-30T09:01:40.476Z,23.20
2018-06-30T09:04:09.383Z,23.50
2018-06-30T09:06:38.408Z,23.70
2018-06-30T09:09:09.382Z,23.80
2018-06-30T09:11:38.289Z,23.90
2018-06-30T09:14:07.390Z,24.00
2018-06-30T09:16:36.297Z,24.00
2018-06-30T09:19:05.709Z,23.90
2018-06-30T09:21:34.586Z,24.20
2018-06-30T09:24:03.556Z,24.10
2018-06-30T09:26:32.418Z,24.10
2018-06-30T09:29:01.337Z,24.30
2018-06-30T09:31:30.242Z,24.30
2018-06-30T09:33:59.166Z,24.40
2018-06-30T09:36:28.054Z,24.50
2018-06-30T09:38:57.059Z,24.50
2018-06-30T09:41:25.994Z,24.60
2018-06-30T09:43:54.869Z,24.60
2018-06-30T09:46:23.818Z,24.10
2018-06-30T09:48:52.792Z,24.10
2018-06-30T09:51:21.733Z,24.20
2018-06-30T09:53:50.628Z,24.40
2018-06-30T09:56:19.624Z,24.50
2018-06-30T09:58:48.580Z,24.70
2018-06-30T10:01:17.498Z,24.70
2018-06-30T10:03:46.501Z,24.90
2018-06-30T10:06:15.436Z,25.10
2018-06-30T10:08:44.315Z,25.30
2018-06-30T10:11:13.210Z,25.40
2018-06-30T10:13:42.093Z,25.60
2018-06-30T10:16:10.995Z,25.60
2018-06-30T10:18:39.947Z,25.50
2018-06-30T10:21:08.895Z,25.30
2018-06-30T10:23:37.832Z,25.30
2018-06-30T10:26:06.721Z,25.40
2018-06-30T10:28:35.633Z,25.60
2018-06-30T10:31:04.532Z,25.50
2018-06-30T10:33:33.558Z,25.90
2018-06-30T10:36:02.432Z,25.90
2018-06-30T10:38:31.349Z,26.10
2018-06-30T10:41:00.278Z,26.40
2018-06-30T10:43:29.289Z,26.60
2018-06-30T10:45:58.202Z,26.50
2018-06-30T10:48:27.083Z,26.70
2018-06-30T10:50:56.011Z,26.90
2018-06-30T10:53:24.914Z,27.00
2018-06-30T10:55:53.799Z,27.10
2018-06-30T10:58:22.738Z,27.00
2018-06-30T11:00:51.642Z,27.30
2018-06-30T11:03:20.679Z,27.30
2018-06-30T11:05:49.617Z,27.60
2018-06-30T11:08:18.598Z,27.60
2018-06-30T11:10:48.258Z,27.30
2018-06-30T11:13:17.169Z,26.80
2018-06-30T11:15:46.115Z,27.10
2018-06-30T11:18:15.075Z,27.00
2018-06-30T11:20:44.006Z,26.80
2018-06-30T11:23:12.914Z,27.00
2018-06-30T11:25:41.911Z,26.90
2018-06-30T11:30:39.399Z,27.50
2018-06-30T11:33:08.378Z,27.80
2018-06-30T11:35:37.313Z,27.50
2018-06-30T11:38:06.233Z,27.50
2018-06-30T11:40:35.177Z,27.50
2018-06-30T11:43:04.183Z,28.10
2018-06-30T11:45:33.171Z,28.00
2018-06-30T11:48:02.119Z,28.10
2018-06-30T11:50:31.179Z,28.00
2018-06-30T11:53:00.094Z,28.00
2018-06-30T11:55:29.090Z,28.00
2018-06-30T11:57:58.004Z,28.20
2018-06-30T12:00:26.914Z,28.60
2018-06-30T12:02:57.063Z,28.80
2018-06-30T12:05:25.975Z,28.50
2018-06-30T12:07:54.946Z,28.50
2018-06-30T12:10:23.986Z,28.40
2018-06-30T12:12:52.943Z,28.50
2018-06-30T12:15:21.896Z,28.50
2018-06-30T12:17:50.826Z,28.50
2018-06-30T12:20:19.786Z,28.70
2018-06-30T12:22:48.741Z,28.70
2018-06-30T12:25:17.627Z,28.80
2018-06-30T12:27:46.522Z,29.20
2018-06-30T12:30:16.529Z,29.50
2018-06-30T12:32:45.374Z,29.40
2018-06-30T12:35:15.625Z,29.70
2018-06-30T12:37:44.488Z,30.10
2018-06-30T12:40:13.386Z,29.80
2018-06-30T12:42:42.307Z,30.30
2018-06-30T12:45:11.182Z,29.90
2018-06-30T12:47:40.098Z,29.90
2018-06-30T12:50:08.998Z,30.50
2018-06-30T12:52:37.910Z,30.20
2018-06-30T12:55:06.851Z,29.90
2018-06-30T12:57:35.717Z,29.50
2018-06-30T13:00:05.160Z,29.20
2018-06-30T13:05:02.941Z,30.00
2018-06-30T13:07:31.870Z,29.90
2018-06-30T13:10:00.813Z,29.80
2018-06-30T13:12:29.699Z,30.20
2018-06-30T13:14:58.618Z,30.50
2018-06-30T13:17:27.509Z,30.50
2018-06-30T13:19:56.398Z,30.40
2018-06-30T13:24:53.945Z,30.70
2018-06-30T13:27:22.888Z,30.80
2018-06-30T13:29:51.813Z,30.20
2018-06-30T13:32:20.711Z,30.40
2018-06-30T13:34:49.669Z,31.10
2018-06-30T13:37:18.619Z,31.00
2018-06-30T13:39:47.622Z,31.00
2018-06-30T13:42:16.828Z,31.70
2018-06-30T13:44:45.501Z,32.00
2018-06-30T13:47:14.340Z,31.50
2018-06-30T13:49:43.299Z,31.20
2018-06-30T13:52:12.170Z,30.90
2018-06-30T13:54:41.430Z,31.50
2018-06-30T13:57:10.358Z,31.70
2018-06-30T13:59:39.286Z,31.70
2018-06-30T14:02:08.346Z,31.90
2018-06-30T14:04:37.286Z,32.50
2018-06-30T14:07:06.413Z,32.40
2018-06-30T14:12:03.870Z,32.50
2018-06-30T14:14:32.765Z,32.20
2018-06-30T14:17:01.852Z,32.20
2018-06-30T14:19:30.744Z,32.60
2018-06-30T14:21:59.642Z,32.90
2018-06-30T14:24:28.507Z,32.70
2018-06-30T14:26:57.421Z,33.00
2018-06-30T14:29:26.341Z,33.50
2018-06-30T14:31:55.231Z,33.70
2018-06-30T14:34:24.155Z,33.30
2018-06-30T14:36:53.303Z,33.30
2018-06-30T14:39:22.206Z,32.80
2018-06-30T14:41:51.162Z,32.70
2018-06-30T14:44:27.590Z,32.90
2018-06-30T14:46:56.906Z,32.90
2018-06-30T14:49:25.812Z,32.70
2018-06-30T14:51:54.765Z,32.90
2018-06-30T14:54:23.686Z,33.20
2018-06-30T14:56:52.742Z,33.50
2018-06-30T14:59:21.731Z,33.30
2018-06-30T15:01:50.686Z,32.70
2018-06-30T15:04:19.630Z,33.00
2018-06-30T15:06:48.621Z,33.80
2018-06-30T15:09:17.554Z,33.60
2018-06-30T15:11:46.658Z,33.10
2018-06-30T15:14:15.751Z,33.10
2018-06-30T15:16:44.714Z,33.00
2018-06-30T15:21:42.234Z,33.70
2018-06-30T15:24:11.130Z,33.60
2018-06-30T15:26:40.036Z,33.70
2018-06-30T15:29:08.946Z,34.30
2018-06-30T15:31:37.985Z,33.70
2018-06-30T15:34:06.885Z,33.40
2018-06-30T15:36:35.823Z,33.30
2018-06-30T15:39:07.606Z,33.70
2018-06-30T15:41:36.811Z,33.30
2018-06-30T15:44:06.090Z,33.30
2018-06-30T15:46:34.966Z,33.90
2018-06-30T15:49:03.885Z,33.50
2018-06-30T15:51:32.744Z,34.00
2018-06-30T15:54:01.700Z,34.00
2018-06-30T15:56:30.698Z,34.00
2018-06-30T15:58:59.566Z,33.80
2018-06-30T16:01:28.499Z,34.20
2018-06-30T16:03:57.382Z,34.20
2018-06-30T16:08:54.794Z,34.70
2018-06-30T16:11:23.818Z,35.00
2018-06-30T16:13:53.013Z,34.90
2018-06-30T16:16:22.012Z,34.80
2018-06-30T16:18:51.053Z,35.00
2018-06-30T16:21:20.022Z,34.90
2018-06-30T16:23:48.974Z,33.80
2018-06-30T16:26:17.877Z,33.80
2018-06-30T16:28:47.599Z,33.80
2018-06-30T16:31:16.498Z,34.30
2018-06-30T16:33:45.410Z,33.00
2018-06-30T16:36:14.383Z,33.00
2018-06-30T16:38:43.338Z,33.00
2018-06-30T16:41:12.295Z,33.30
2018-06-30T16:43:41.169Z,32.70
2018-06-30T16:48:38.594Z,33.10
2018-06-30T16:51:07.517Z,33.20
2018-06-30T16:53:36.487Z,32.90
2018-06-30T16:56:05.419Z,33.20
2018-06-30T16:58:34.309Z,33.70
2018-06-30T17:01:03.214Z,34.60
2018-06-30T17:03:32.124Z,33.50
2018-06-30T17:06:01.023Z,33.30
2018-06-30T17:08:29.890Z,32.70
2018-06-30T17:10:58.778Z,31.20
2018-06-30T17:13:27.650Z,31.20
2018-06-30T17:15:56.675Z,31.50
2018-06-30T17:18:25.541Z,32.30
2018-06-30T17:20:54.441Z,31.70
2018-06-30T17:23:23.362Z,32.50
2018-06-30T17:25:52.376Z,32.90
2018-06-30T17:28:21.259Z,31.70
2018-06-30T17:30:50.211Z,31.10
2018-06-30T17:33:19.122Z,31.30
2018-06-30T17:35:48.034Z,31.30
2018-06-30T17:38:16.946Z,30.90
2018-06-30T17:40:45.831Z,29.70
2018-06-30T17:43:14.742Z,29.50
2018-06-30T17:45:43.639Z,29.50
2018-06-30T17:48:12.534Z,28.50
2018-06-30T17:50:41.827Z,28.90
2018-06-30T17:53:11.259Z,28.60
2018-06-30T17:55:40.163Z,28.10
2018-06-30T17:58:09.042Z,26.90
2018-06-30T18:00:37.986Z,26.50
2018-06-30T18:03:07.078Z,26.30
2018-06-30T18:05:35.990Z,26.00
2018-06-30T18:08:04.927Z,25.70
2018-06-30T18:10:33.822Z,25.20
2018-06-30T18:13:02.752Z,25.10
2018-06-30T18:15:31.723Z,24.70
2018-06-30T18:18:00.636Z,24.50
2018-06-30T18:20:29.521Z,24.30
2018-06-30T18:22:58.422Z,24.00
2018-06-30T18:25:27.298Z,24.20
2018-06-30T18:27:56.257Z,24.30
2018-06-30T18:30:25.102Z,24.10
2018-06-30T18:32:54.071Z,23.80
2018-06-30T18:35:23.214Z,23.70
2018-06-30T18:37:52.309Z,23.40
2018-06-30T18:40:21.254Z,23.30
2018-06-30T18:42:50.272Z,23.20
2018-06-30T18:45:19.242Z,23.00
2018-06-30T18:47:48.190Z,23.00
2018-06-30T18:50:17.210Z,22.70
2018-06-30T18:52:46.165Z,22.70
2018-06-30T18:55:15.063Z,22.70
2018-06-30T18:57:43.986Z,22.50
2018-06-30T19:00:12.927Z,22.50
2018-06-30T19:02:41.816Z,22.30
2018-06-30T19:05:10.736Z,22.40
2018-06-30T19:10:08.619Z,22.00
2018-06-30T19:12:37.738Z,22.00
2018-06-30T19:15:06.802Z,21.90
2018-06-30T19:17:35.934Z,21.70
2018-06-30T19:20:05.457Z,21.50
2018-06-30T19:22:34.450Z,21.60
2018-06-30T19:25:03.463Z,21.40
2018-06-30T19:27:32.386Z,21.30
2018-06-30T19:30:01.369Z,21.30
2018-06-30T19:32:36.830Z,21.30
2018-06-30T19:35:05.729Z,21.20
2018-06-30T19:37:34.763Z,21.10
2018-06-30T19:40:03.748Z,21.10
2018-06-30T19:42:32.738Z,21.00
2018-06-30T19:45:01.649Z,20.90
2018-06-30T19:47:30.561Z,20.90
2018-06-30T19:49:59.674Z,20.70
2018-06-30T19:52:28.608Z,20.70
2018-06-30T19:54:57.566Z,20.60
2018-06-30T19:57:26.554Z,20.70
2018-06-30T19:59:57.367Z,20.70
2018-06-30T20:02:26.390Z,20.60
2018-06-30T20:04:55.343Z,20.60
2018-06-30T20:07:24.416Z,20.60
2018-06-30T20:09:53.366Z,20.50
2018-06-30T20:12:22.400Z,20.50
2018-06-30T20:14:51.905Z,20.20
2018-06-30T20:17:20.870Z,20.10
2018-06-30T20:19:49.770Z,20.20
2018-06-30T20:22:19.007Z,20.20
2018-06-30T20:24:47.931Z,20.00
2018-06-30T20:27:16.814Z,20.00
2018-06-30T20:29:45.731Z,20.00
2018-06-30T20:32:14.786Z,19.90
2018-06-30T20:34:43.657Z,19.90
2018-06-30T20:37:12.576Z,19.90
2018-06-30T20:39:41.501Z,19.80
2018-06-30T20:42:10.403Z,19.80
2018-06-30T20:44:39.322Z,19.80
2018-06-30T20:47:08.230Z,19.80
2018-06-30T20:49:37.170Z,19.60
2018-06-30T20:52:06.133Z,19.70
2018-06-30T20:54:35.049Z,19.70
2018-06-30T20:57:03.990Z,19.50
2018-06-30T20:59:32.942Z,19.50
2018-06-30T21:02:02.030Z,19.30
2018-06-30T21:04:31.015Z,19.20
2018-06-30T21:09:35.455Z,19.20
2018-06-30T21:12:04.419Z,19.20
2018-06-30T21:14:33.446Z,19.20
2018-06-30T21:17:02.344Z,19.20
2018-06-30T21:19:31.328Z,19.10
2018-06-30T21:22:00.285Z,19.10
2018-06-30T21:24:29.241Z,19.00
2018-06-30T21:26:58.217Z,19.00
2018-06-30T21:29:27.310Z,18.90
2018-06-30T21:31:56.491Z,18.80
2018-06-30T21:34:25.445Z,18.70
2018-06-30T21:36:54.665Z,18.60
2018-06-30T21:39:23.574Z,18.40
2018-06-30T21:41:52.490Z,18.30
2018-06-30T21:44:21.411Z,18.20
2018-06-30T21:46:50.325Z,18.10
2018-06-30T21:49:19.223Z,18.00
2018-06-30T21:51:48.110Z,18.10
2018-06-30T21:54:17.170Z,18.00
2018-06-30T21:56:46.102Z,17.90
2018-06-30T21:59:14.994Z,17.90
2018-06-30T22:01:43.967Z,17.80
2018-06-30T22:04:12.874Z,17.70
2018-06-30T22:06:41.851Z,17.60
2018-06-30T22:09:11.546Z,17.50
2018-06-30T22:14:09.082Z,17.50
2018-06-30T22:16:37.985Z,17.40
2018-06-30T22:19:07.157Z,17.40
2018-06-30T22:21:36.011Z,17.20
2018-06-30T22:24:05.264Z,17.10
2018-06-30T22:26:34.197Z,16.80
2018-06-30T22:29:03.181Z,16.60
2018-06-30T22:31:32.082Z,16.50
2018-06-30T22:34:00.994Z,16.50
2018-06-30T22:36:29.886Z,16.40
2018-06-30T22:38:58.797Z,16.40
2018-06-30T22:41:27.677Z,16.50
2018-06-30T22:43:56.670Z,16.60
2018-06-30T22:46:25.567Z,16.50
2018-06-30T22:48:54.474Z,16.50
2018-06-30T22:51:24.090Z,16.40
2018-06-30T22:53:53.097Z,16.40
2018-06-30T22:56:22.095Z,16.40
2018-06-30T22:58:51.430Z,16.20
2018-06-30T23:01:20.374Z,16.30
2018-06-30T23:03:49.418Z,16.40
2018-06-30T23:06:18.310Z,16.30
2018-06-30T23:08:53.043Z,16.20
2018-06-30T23:11:22.886Z,16.30
2018-06-30T23:13:52.065Z,16.30
2018-06-30T23:16:20.994Z,16.30
2018-06-30T23:18:49.977Z,16.10
2018-06-30T23:21:18.870Z,16.20
2018-06-30T23:23:47.763Z,16.10
2018-06-30T23:26:16.639Z,15.90
2018-06-30T23:28:45.618Z,16.00
2018-06-30T23:31:14.490Z,16.00
2018-06-30T23:33:43.398Z,16.00
2018-06-30T23:36:12.330Z,16.00
2018-06-30T23:38:41.367Z,15.90
2018-06-30T23:41:10.271Z,15.90
2018-06-30T23:43:39.187Z,15.90
2018-06-30T23:46:08.082Z,15.90
2018-06-30T23:48:36.978Z,15.80
2018-06-30T23:51:05.890Z,15.80
2018-06-30T23:53:34.773Z,15.80
2018-06-30T23:56:03.718Z,15.80
2018-06-30T23:58:32.638Z,15.90
